Time;durP1;ratioP1;P1;durP2;ratioP2;P2;SDS_P1;SDS_P2;PMS_P1;PMS_P2;Temp;Humidity;BMP_temperature;BMP_pressure;BME280_temperature;BME280_humidity;BME280_pressure;Samples;Min_cycle;Max_cycle;Signal;HPM_P1;HPM_P2
2020/12/15 00:00:40;;;;;;;0.98;0.70;;;10.30;91.10;;;;;;5070173;28;20052;-83
2020/12/15 00:03:06;;;;;;;1.42;1.10;;;10.30;91.00;;;;;;5078455;28;20436;-82
2020/12/15 00:05:31;;;;;;;0.80;0.80;;;10.30;91.00;;;;;;5080577;28;20025;-82
2020/12/15 00:07:57;;;;;;;0.90;0.90;;;10.30;91.00;;;;;;5077663;28;20035;-83
2020/12/15 00:10:23;;;;;;;0.80;0.80;;;10.20;90.90;;;;;;5081130;28;20102;-82
2020/12/15 00:12:48;;;;;;;1.02;0.85;;;10.30;91.00;;;;;;5079685;28;20035;-82
2020/12/15 00:15:14;;;;;;;1.13;1.02;;;10.20;90.90;;;;;;5081954;28;20100;-83
2020/12/15 00:17:39;;;;;;;0.65;0.65;;;10.20;90.90;;;;;;5092588;28;20063;-83
2020/12/15 00:20:07;;;;;;;0.43;0.43;;;10.20;90.80;;;;;;5058412;28;20046;-82
2020/12/15 00:22:34;;;;;;;1.25;1.17;;;10.20;90.80;;;;;;5083431;28;20036;-81
2020/12/15 00:25:00;;;;;;;0.95;0.80;;;10.20;90.80;;;;;;5088654;28;20087;-82
2020/12/15 00:27:26;;;;;;;1.50;0.98;;;10.20;90.70;;;;;;5058336;28;20052;-82
2020/12/15 00:29:52;;;;;;;1.02;0.88;;;10.20;90.70;;;;;;5075036;28;20028;-81
2020/12/15 00:32:17;;;;;;;0.50;0.50;;;10.20;90.70;;;;;;5043835;28;20541;-82
2020/12/15 00:34:44;;;;;;;0.90;0.90;;;10.20;90.70;;;;;;5058757;28;20023;-81
2020/12/15 00:37:10;;;;;;;0.88;0.60;;;10.20;90.60;;;;;;5074907;28;20250;-81
2020/12/15 00:39:36;;;;;;;0.85;0.85;;;10.20;90.60;;;;;;5057727;28;20022;-82
2020/12/15 00:42:02;;;;;;;0.82;0.80;;;10.20;90.60;;;;;;5074558;28;20135;-82
2020/12/15 00:44:28;;;;;;;0.82;0.82;;;10.10;90.60;;;;;;5075421;28;20406;-79
2020/12/15 00:46:54;;;;;;;1.15;1.00;;;10.10;90.60;;;;;;5075277;28;20020;-82
2020/12/15 00:49:19;;;;;;;0.95;0.73;;;10.10;90.60;;;;;;5062739;28;20038;-79
2020/12/15 00:51:48;;;;;;;0.95;0.80;;;10.10;90.60;;;;;;5092034;28;20024;-80
2020/12/15 00:54:15;;;;;;;1.00;0.90;;;10.10;90.60;;;;;;5089694;28;20032;-80
2020/12/15 00:56:41;;;;;;;1.10;1.00;;;10.10;90.80;;;;;;5076772;28;20025;-80
2020/12/15 00:59:06;;;;;;;0.88;0.88;;;10.10;90.50;;;;;;5082387;28;20020;-81
2020/12/15 01:01:32;;;;;;;0.63;0.63;;;10.10;90.50;;;;;;5082872;28;20405;-81
2020/12/15 01:03:57;;;;;;;0.65;0.65;;;10.10;90.40;;;;;;5074822;28;20074;-79
2020/12/15 01:06:23;;;;;;;0.85;0.82;;;10.10;90.40;;;;;;5094738;28;20370;-80
2020/12/15 01:08:49;;;;;;;0.73;0.70;;;10.10;90.40;;;;;;5092790;28;20103;-80
2020/12/15 01:11:15;;;;;;;0.98;0.88;;;10.10;90.40;;;;;;5083719;28;20056;-80
2020/12/15 01:13:41;;;;;;;0.50;0.50;;;10.10;90.40;;;;;;5072052;28;20056;-80
2020/12/15 01:16:08;;;;;;;0.57;0.57;;;10.10;90.30;;;;;;5086748;28;20487;-81
2020/12/15 01:18:36;;;;;;;0.70;0.60;;;10.10;90.30;;;;;;5089540;28;20032;-80
2020/12/15 01:21:03;;;;;;;0.80;0.75;;;10.20;90.30;;;;;;5093338;28;20108;-81
2020/12/15 01:23:29;;;;;;;0.70;0.70;;;10.20;90.30;;;;;;5060710;28;20029;-80
2020/12/15 01:25:55;;;;;;;0.85;0.85;;;10.10;90.30;;;;;;5094965;28;20032;-80
2020/12/15 01:28:22;;;;;;;0.50;0.50;;;10.20;90.30;;;;;;5062507;28;20055;-80
2020/12/15 01:30:47;;;;;;;1.38;0.75;;;10.20;90.20;;;;;;5057123;28;20029;-80
2020/12/15 01:33:13;;;;;;;0.90;0.90;;;10.20;90.20;;;;;;5075884;28;20020;-81
2020/12/15 01:35:38;;;;;;;1.10;1.10;;;10.20;90.20;;;;;;5077960;28;20028;-81
2020/12/15 01:38:04;;;;;;;0.50;0.50;;;10.20;90.20;;;;;;5042264;28;20523;-81
2020/12/15 01:40:30;;;;;;;0.90;0.90;;;10.20;90.20;;;;;;5074111;28;20032;-80
2020/12/15 01:42:57;;;;;;;1.08;1.00;;;10.10;90.20;;;;;;5087052;28;20044;-80
2020/12/15 01:45:24;;;;;;;1.33;0.80;;;10.10;90.20;;;;;;5068524;28;20047;-80
2020/12/15 01:47:50;;;;;;;0.60;0.60;;;10.20;90.20;;;;;;5090648;28;20103;-80
2020/12/15 01:50:17;;;;;;;0.75;0.75;;;10.10;90.20;;;;;;5056103;28;20437;-80
2020/12/15 01:52:43;;;;;;;0.50;0.50;;;10.10;90.10;;;;;;5075424;28;20359;-80
2020/12/15 01:55:10;;;;;;;0.77;0.75;;;10.20;90.10;;;;;;5068925;28;20027;-80
2020/12/15 01:57:39;;;;;;;0.45;0.45;;;10.20;90.10;;;;;;5086355;28;20028;-80
2020/12/15 02:00:07;;;;;;;0.70;0.70;;;10.20;90.10;;;;;;5095437;28;20039;-81
2020/12/15 02:02:34;;;;;;;0.50;0.45;;;10.20;90.10;;;;;;5082784;28;20056;-82
2020/12/15 02:05:00;;;;;;;0.70;0.70;;;10.20;90.10;;;;;;5067778;28;20563;-81
2020/12/15 02:07:26;;;;;;;0.85;0.77;;;10.20;90.10;;;;;;5090467;28;20032;-81
2020/12/15 02:09:53;;;;;;;0.68;0.68;;;10.20;90.10;;;;;;5083792;28;20032;-81
2020/12/15 02:12:19;;;;;;;1.25;0.80;;;10.10;90.10;;;;;;5094104;28;20374;-81
2020/12/15 02:14:45;;;;;;;0.85;0.63;;;10.20;90.10;;;;;;5086741;28;20020;-81
2020/12/15 02:17:13;;;;;;;0.60;0.60;;;10.20;90.10;;;;;;5056339;28;20445;-81
2020/12/15 02:19:39;;;;;;;0.52;0.52;;;10.20;90.10;;;;;;5067931;28;20056;-80
2020/12/15 02:22:05;;;;;;;0.80;0.80;;;10.20;90.10;;;;;;5070585;28;20039;-82
2020/12/15 02:24:31;;;;;;;0.85;0.80;;;10.20;90.00;;;;;;5094941;28;20028;-81
2020/12/15 02:26:56;;;;;;;1.02;0.73;;;10.20;90.00;;;;;;5070137;28;20123;-81
2020/12/15 02:29:23;;;;;;;0.65;0.65;;;10.20;90.00;;;;;;5059885;28;20099;-82
2020/12/15 02:31:49;;;;;;;0.70;0.70;;;10.20;90.00;;;;;;5077108;28;20032;-82
2020/12/15 02:34:17;;;;;;;0.95;0.90;;;10.20;90.00;;;;;;5094405;28;20028;-81
2020/12/15 02:36:42;;;;;;;0.73;0.73;;;10.20;90.30;;;;;;5072125;28;20117;-81
2020/12/15 02:39:17;;;;;;;0.63;0.63;;;10.20;90.00;;;;;;5094054;28;20484;-82
2020/12/15 02:41:43;;;;;;;0.93;0.85;;;10.30;90.10;;;;;;5057423;28;20039;-82
2020/12/15 02:44:09;;;;;;;0.50;0.50;;;10.20;90.00;;;;;;5066830;28;20385;-82
2020/12/15 02:46:35;;;;;;;0.68;0.68;;;10.20;90.00;;;;;;5077980;28;20052;-82
2020/12/15 02:49:02;;;;;;;0.93;0.70;;;10.20;90.00;;;;;;5081286;28;20020;-82
2020/12/15 02:51:28;;;;;;;0.63;0.63;;;10.30;90.00;;;;;;5041598;28;20411;-83
2020/12/15 02:53:55;;;;;;;0.55;0.55;;;10.30;90.00;;;;;;5061063;28;20032;-83
2020/12/15 02:56:24;;;;;;;1.00;0.80;;;10.20;90.00;;;;;;5072762;28;20072;-83
2020/12/15 02:58:54;;;;;;;0.68;0.68;;;10.20;90.30;;;;;;5074070;28;20070;-83
2020/12/15 03:01:20;;;;;;;0.70;0.70;;;10.20;90.00;;;;;;5056021;28;20039;-83
2020/12/15 03:03:46;;;;;;;0.80;0.80;;;10.20;90.00;;;;;;5056434;28;20060;-84
2020/12/15 03:06:12;;;;;;;0.60;0.60;;;10.30;90.00;;;;;;5078211;28;20021;-84
2020/12/15 03:08:38;;;;;;;0.82;0.82;;;10.20;90.00;;;;;;5063044;28;20051;-84
2020/12/15 03:11:05;;;;;;;1.02;0.93;;;10.20;90.00;;;;;;5079658;28;20020;-84
2020/12/15 03:13:31;;;;;;;0.70;0.70;;;10.30;90.00;;;;;;5078884;28;20112;-83
2020/12/15 03:15:57;;;;;;;0.88;0.80;;;10.30;90.00;;;;;;5056784;28;20024;-84
2020/12/15 03:18:22;;;;;;;0.73;0.65;;;10.30;90.00;;;;;;5055721;28;20039;-84
2020/12/15 03:20:49;;;;;;;0.43;0.43;;;10.30;90.00;;;;;;5054807;28;20033;-84
2020/12/15 03:23:16;;;;;;;0.70;0.70;;;10.30;90.00;;;;;;5055505;28;20103;-84
2020/12/15 03:25:42;;;;;;;0.95;0.95;;;10.30;90.00;;;;;;5054366;28;20489;-84
2020/12/15 03:28:08;;;;;;;0.90;0.80;;;10.30;90.00;;;;;;5056236;28;20029;-84
2020/12/15 03:30:35;;;;;;;0.50;0.50;;;10.30;90.00;;;;;;5077576;28;20594;-84
2020/12/15 03:33:07;;;;;;;0.77;0.77;;;10.40;90.00;;;;;;5077676;28;20025;-84
2020/12/15 03:35:33;;;;;;;1.00;1.00;;;10.30;90.00;;;;;;5056909;28;20037;-84
2020/12/15 03:37:59;;;;;;;0.55;0.55;;;10.40;90.10;;;;;;5066996;28;20377;-83
2020/12/15 03:40:25;;;;;;;1.00;0.90;;;10.40;90.00;;;;;;5063359;28;20016;-83
2020/12/15 03:42:51;;;;;;;0.65;0.65;;;10.40;90.00;;;;;;5038838;28;20065;-84
2020/12/15 03:45:17;;;;;;;0.70;0.70;;;10.40;90.00;;;;;;5056631;28;20049;-84
2020/12/15 03:47:43;;;;;;;0.60;0.60;;;10.40;90.00;;;;;;5047769;28;20025;-84
2020/12/15 03:50:09;;;;;;;0.73;0.70;;;10.50;90.00;;;;;;5039839;28;20086;-84
2020/12/15 03:52:40;;;;;;;0.65;0.65;;;10.40;90.00;;;;;;5074226;28;20036;-84
2020/12/15 03:55:07;;;;;;;1.05;1.00;;;10.50;90.00;;;;;;5063080;28;20028;-83
2020/12/15 03:57:34;;;;;;;0.65;0.65;;;10.50;90.00;;;;;;5053658;28;20029;-83
2020/12/15 03:59:59;;;;;;;1.55;1.17;;;10.50;90.00;;;;;;5045479;28;20025;-84
2020/12/15 04:02:25;;;;;;;0.68;0.60;;;10.50;90.00;;;;;;5064188;28;20036;-83
2020/12/15 04:04:51;;;;;;;1.00;1.00;;;10.50;90.00;;;;;;5076785;28;20020;-84
2020/12/15 04:07:17;;;;;;;0.63;0.63;;;10.50;89.90;;;;;;5067923;28;20021;-83
2020/12/15 04:09:44;;;;;;;0.70;0.70;;;10.50;89.90;;;;;;5056012;28;20040;-83
2020/12/15 04:12:12;;;;;;;0.70;0.70;;;10.50;90.00;;;;;;5058151;28;20029;-83
2020/12/15 04:14:40;;;;;;;0.57;0.57;;;10.60;90.00;;;;;;5056322;28;20104;-83
2020/12/15 04:17:11;;;;;;;1.55;0.77;;;10.60;90.00;;;;;;5059137;28;20367;-82
2020/12/15 04:19:37;;;;;;;0.77;0.77;;;10.60;90.00;;;;;;5076025;28;20093;-83
2020/12/15 04:22:06;;;;;;;0.70;0.70;;;10.60;90.00;;;;;;5072042;28;20040;-83
2020/12/15 04:24:32;;;;;;;0.57;0.57;;;10.60;90.00;;;;;;5064056;28;20382;-81
2020/12/15 04:26:58;;;;;;;0.73;0.73;;;10.50;89.90;;;;;;5058279;28;20033;-82
2020/12/15 04:29:24;;;;;;;0.40;0.40;;;10.60;90.00;;;;;;5069284;28;20023;-83
2020/12/15 04:31:51;;;;;;;0.77;0.77;;;10.60;90.00;;;;;;5056422;28;20100;-82
2020/12/15 04:34:17;;;;;;;0.70;0.70;;;10.60;90.00;;;;;;5055746;28;20055;-82
2020/12/15 04:36:42;;;;;;;0.93;0.77;;;10.60;90.00;;;;;;5058566;28;20066;-82
2020/12/15 04:39:08;;;;;;;0.73;0.73;;;10.60;90.00;;;;;;5065553;28;20029;-82
2020/12/15 04:41:34;;;;;;;0.63;0.63;;;10.50;90.00;;;;;;5063312;28;20616;-82
2020/12/15 04:44:00;;;;;;;0.55;0.55;;;10.50;90.00;;;;;;5056152;28;20529;-82
2020/12/15 04:46:28;;;;;;;0.95;0.95;;;10.60;90.00;;;;;;5054396;28;20029;-82
2020/12/15 04:49:06;;;;;;;0.80;0.80;;;10.60;90.00;;;;;;5052822;28;20056;-82
2020/12/15 04:51:56;;;;;;;0.52;0.52;;;10.60;90.00;;;;;;5074990;28;20442;-81
2020/12/15 04:54:34;;;;;;;1.00;0.85;;;10.60;90.00;;;;;;5051972;28;20025;-82
2020/12/15 04:57:02;;;;;;;0.75;0.75;;;10.60;90.00;;;;;;5054282;28;20036;-82
2020/12/15 04:59:37;;;;;;;0.77;0.73;;;10.60;90.00;;;;;;5055578;28;20162;-81
2020/12/15 05:02:03;;;;;;;0.52;0.52;;;10.60;90.00;;;;;;5055671;28;20033;-82
2020/12/15 05:04:35;;;;;;;0.82;0.63;;;10.60;90.00;;;;;;5055464;28;20025;-81
2020/12/15 05:07:04;;;;;;;0.52;0.52;;;10.60;90.00;;;;;;5053603;28;20569;-81
2020/12/15 05:09:31;;;;;;;0.68;0.68;;;10.60;90.00;;;;;;5055895;28;20029;-81
2020/12/15 05:11:57;;;;;;;0.50;0.50;;;10.60;89.90;;;;;;5055176;28;20024;-81
2020/12/15 05:14:24;;;;;;;0.73;0.73;;;10.60;89.90;;;;;;5057459;28;20075;-82
2020/12/15 05:16:53;;;;;;;0.77;0.70;;;10.70;89.90;;;;;;5063022;28;20021;-82
2020/12/15 05:19:19;;;;;;;0.77;0.70;;;10.70;89.80;;;;;;5073753;28;20119;-81
2020/12/15 05:22:00;;;;;;;0.82;0.82;;;10.60;89.80;;;;;;5073277;28;20234;-81
2020/12/15 05:24:30;;;;;;;0.75;0.75;;;10.70;89.90;;;;;;5055646;28;20136;-80
2020/12/15 05:26:56;;;;;;;;;;;10.70;89.90;;;;;;5054779;28;20416;-80
2020/12/15 05:29:22;;;;;;;0.98;0.82;;;10.60;89.80;;;;;;5054296;28;19927;-81
2020/12/15 05:31:48;;;;;;;0.80;0.80;;;10.60;90.00;;;;;;5052919;28;20111;-81
2020/12/15 05:34:22;;;;;;;1.02;0.95;;;10.60;89.90;;;;;;5054803;28;20017;-80
2020/12/15 05:36:59;;;;;;;0.60;0.57;;;10.60;89.80;;;;;;5047055;28;20017;-81
2020/12/15 05:39:26;;;;;;;0.70;0.70;;;10.70;89.90;;;;;;5054488;28;20017;-81
2020/12/15 05:42:06;;;;;;;0.90;0.90;;;10.60;89.80;;;;;;5053903;28;20047;-80
2020/12/15 05:44:36;;;;;;;0.85;0.85;;;10.60;89.70;;;;;;5075411;28;20423;-81
2020/12/15 05:47:05;;;;;;;0.93;0.80;;;10.70;89.90;;;;;;5074540;28;20025;-80
2020/12/15 05:49:33;;;;;;;0.80;0.80;;;10.60;89.80;;;;;;5074479;28;21015;-80
2020/12/15 05:51:59;;;;;;;0.57;0.57;;;10.60;89.90;;;;;;5055040;28;20090;-80
2020/12/15 05:54:26;;;;;;;0.55;0.52;;;10.60;89.90;;;;;;5073513;28;20021;-80
2020/12/15 05:57:03;;;;;;;0.70;0.70;;;10.60;89.90;;;;;;5072639;28;20028;-80
2020/12/15 05:59:29;;;;;;;0.70;0.70;;;10.60;89.80;;;;;;5074421;28;20112;-80
2020/12/15 06:02:06;;;;;;;0.73;0.73;;;10.60;89.90;;;;;;5073469;28;20036;-80
2020/12/15 06:04:33;;;;;;;0.70;0.70;;;10.60;89.80;;;;;;5073332;28;20595;-80
2020/12/15 06:07:00;;;;;;;0.80;0.80;;;10.60;89.90;;;;;;5073633;28;20116;-81
2020/12/15 06:09:29;;;;;;;0.90;0.90;;;10.60;89.80;;;;;;5056255;28;20020;-81
2020/12/15 06:11:55;;;;;;;0.45;0.45;;;10.60;89.80;;;;;;5073418;28;20488;-82
2020/12/15 06:14:23;;;;;;;0.70;0.70;;;10.60;89.70;;;;;;5074050;28;20017;-81
2020/12/15 06:16:49;;;;;;;1.50;0.98;;;10.70;89.80;;;;;;5073722;28;20100;-81
2020/12/15 06:19:17;;;;;;;0.90;0.90;;;10.60;89.70;;;;;;5073917;28;20052;-81
2020/12/15 06:21:56;;;;;;;0.82;0.80;;;10.60;89.80;;;;;;5073290;28;20072;-81
2020/12/15 06:24:24;;;;;;;;;;;10.70;89.70;;;;;;5060711;28;20128;-81
2020/12/15 06:26:57;;;;;;;1.20;0.90;;;10.60;89.70;;;;;;5072959;28;19904;-81
2020/12/15 06:29:34;;;;;;;0.75;0.75;;;10.60;89.80;;;;;;5055559;28;20036;-80
2020/12/15 06:32:01;;;;;;;0.70;0.70;;;10.70;89.80;;;;;;5066137;28;20024;-81
2020/12/15 06:34:32;;;;;;;0.65;0.65;;;10.60;89.70;;;;;;5073893;28;20069;-81
2020/12/15 06:36:58;;;;;;;0.70;0.70;;;10.70;89.80;;;;;;5057138;28;20021;-80
2020/12/15 06:39:26;;;;;;;1.00;0.88;;;10.60;89.70;;;;;;5057718;28;20024;-81
2020/12/15 06:42:00;;;;;;;0.80;0.80;;;10.60;89.70;;;;;;5072665;28;20433;-81
2020/12/15 06:44:35;;;;;;;1.05;0.90;;;10.70;89.70;;;;;;5059015;28;20108;-82
2020/12/15 06:47:10;;;;;;;0.60;0.60;;;10.70;89.70;;;;;;5081632;28;20043;-86
2020/12/15 06:49:39;;;;;;;0.68;0.68;;;10.70;89.70;;;;;;5036825;28;20074;-83
2020/12/15 06:52:27;;;;;;;0.50;0.50;;;10.60;89.70;;;;;;5072545;28;20055;-82
2020/12/15 06:54:57;;;;;;;0.85;0.85;;;10.70;89.70;;;;;;5063506;28;20036;-83
2020/12/15 06:57:34;;;;;;;0.68;0.68;;;10.60;89.70;;;;;;5055101;28;20035;-83
2020/12/15 07:00:04;;;;;;;1.10;0.90;;;10.70;89.70;;;;;;5055093;28;20478;-79
2020/12/15 07:02:32;;;;;;;0.60;0.60;;;10.70;89.70;;;;;;5072136;28;20487;-82
2020/12/15 07:05:18;;;;;;;1.00;1.00;;;10.70;89.80;;;;;;5059090;28;20086;-81
2020/12/15 07:07:49;;;;;;;0.73;0.73;;;10.70;89.60;;;;;;5072196;28;20032;-79
2020/12/15 07:10:20;;;;;;;0.80;0.80;;;10.70;89.70;;;;;;5071517;28;20021;-81
2020/12/15 07:12:48;;;;;;;0.75;0.75;;;10.70;89.70;;;;;;5076282;28;20056;-80
2020/12/15 07:15:15;;;;;;;0.80;0.80;;;10.60;89.70;;;;;;5075863;28;20032;-81
2020/12/15 07:17:46;;;;;;;1.45;1.05;;;10.70;89.80;;;;;;5058414;28;20078;-79
2020/12/15 07:20:13;;;;;;;0.93;0.90;;;10.70;89.80;;;;;;5050616;28;20025;-78
2020/12/15 07:22:39;;;;;;;1.58;1.20;;;10.60;89.80;;;;;;5039193;28;20041;-80
2020/12/15 07:25:05;;;;;;;0.68;0.68;;;10.70;89.90;;;;;;5056132;28;20104;-84
2020/12/15 07:27:32;;;;;;;0.68;0.68;;;10.70;89.90;;;;;;5086859;28;20031;-84
2020/12/15 07:29:58;;;;;;;1.42;1.05;;;10.70;89.90;;;;;;5093913;28;20080;-84
2020/12/15 07:32:25;;;;;;;1.40;0.63;;;10.70;89.90;;;;;;5050786;28;20025;-82
2020/12/15 07:35:01;;;;;;;0.95;0.70;;;10.70;89.70;;;;;;5067681;28;20017;-81
2020/12/15 07:37:28;;;;;;;0.80;0.73;;;10.70;89.70;;;;;;5059462;28;20063;-82
2020/12/15 07:40:01;;;;;;;1.02;1.00;;;10.70;89.70;;;;;;5075734;28;20016;-81
2020/12/15 07:42:27;;;;;;;1.00;1.00;;;10.70;89.70;;;;;;5054151;28;20102;-81
2020/12/15 07:44:57;;;;;;;0.90;0.90;;;10.70;89.80;;;;;;5055868;28;20024;-82
2020/12/15 07:47:25;;;;;;;0.82;0.82;;;10.70;89.80;;;;;;5057019;28;20029;-83
2020/12/15 07:49:57;;;;;;;1.00;0.90;;;10.70;89.70;;;;;;5055479;28;20091;-81
2020/12/15 07:52:37;;;;;;;0.93;0.90;;;10.70;89.70;;;;;;5055514;28;20033;-79
2020/12/15 07:55:08;;;;;;;0.80;0.80;;;10.70;89.70;;;;;;5052295;28;20056;-79
2020/12/15 07:57:36;;;;;;;0.82;0.82;;;10.70;89.80;;;;;;5054370;28;20529;-79
2020/12/15 08:00:15;;;;;;;0.75;0.75;;;10.70;89.70;;;;;;5046211;28;20040;-79
2020/12/15 08:02:44;;;;;;;1.00;0.68;;;10.80;89.80;;;;;;5033602;28;20045;-79
2020/12/15 08:05:21;;;;;;;0.90;0.90;;;10.70;89.80;;;;;;5058130;28;20032;-81
2020/12/15 08:07:51;;;;;;;1.02;0.93;;;10.70;89.70;;;;;;5056146;28;20033;-80
2020/12/15 08:10:27;;;;;;;0.70;0.70;;;10.70;89.80;;;;;;5054547;28;20415;-81
2020/12/15 08:12:57;;;;;;;0.80;0.80;;;10.70;89.80;;;;;;5065292;28;20013;-81
2020/12/15 08:15:24;;;;;;;0.82;0.82;;;10.70;89.80;;;;;;5056035;28;20028;-78
2020/12/15 08:17:51;;;;;;;0.80;0.80;;;10.70;89.80;;;;;;5059159;28;20437;-79
2020/12/15 08:20:25;;;;;;;0.80;0.80;;;10.70;89.80;;;;;;5063326;28;20083;-80
2020/12/15 08:23:08;;;;;;;0.70;0.68;;;10.70;89.80;;;;;;5055001;28;20053;-78
2020/12/15 08:25:36;;;;;;;0.68;0.68;;;10.80;89.70;;;;;;5066331;28;20025;-79
2020/12/15 08:28:10;;;;;;;0.95;0.95;;;10.80;89.80;;;;;;5066778;28;20032;-78
2020/12/15 08:30:35;;;;;;;0.52;0.52;;;10.80;89.60;;;;;;5053459;28;20060;-78
2020/12/15 08:33:01;;;;;;;0.60;0.60;;;10.80;89.70;;;;;;5055143;28;20434;-78
2020/12/15 08:35:27;;;;;;;0.93;0.93;;;10.80;89.70;;;;;;5055050;28;20076;-78
2020/12/15 08:37:59;;;;;;;1.00;0.90;;;10.80;89.70;;;;;;5055119;28;20032;-78
2020/12/15 08:40:29;;;;;;;1.05;0.95;;;10.80;89.70;;;;;;5036732;28;20055;-79
2020/12/15 08:42:57;;;;;;;;;;;10.80;89.70;;;;;;5063133;28;20048;-78
2020/12/15 08:45:26;;;;;;;0.70;0.70;;;10.70;89.70;;;;;;5073739;28;19938;-79
2020/12/15 08:47:55;;;;;;;0.80;0.80;;;10.70;89.90;;;;;;5075378;28;20028;-79
2020/12/15 08:50:25;;;;;;;0.73;0.73;;;10.80;89.90;;;;;;5075278;28;20039;-78
2020/12/15 08:52:51;;;;;;;0.70;0.70;;;10.80;89.90;;;;;;5074453;28;20465;-78
2020/12/15 08:55:29;;;;;;;1.02;0.73;;;10.80;89.90;;;;;;5074407;28;20043;-78
2020/12/15 08:58:04;;;;;;;0.73;0.73;;;10.80;89.90;;;;;;5057517;28;20477;-78
2020/12/15 09:00:33;;;;;;;1.00;1.00;;;10.80;89.90;;;;;;5040346;28;20043;-78
2020/12/15 09:03:22;;;;;;;;;;;10.90;89.90;;;;;;5075059;28;20032;-80
2020/12/15 09:05:49;;;;;;;0.65;0.52;;;10.70;89.70;;;;;;5071381;28;19908;-78
2020/12/15 09:08:16;;;;;;;1.15;1.02;;;10.80;90.00;;;;;;5074668;28;20056;-78
2020/12/15 09:10:42;;;;;;;1.15;1.05;;;10.80;89.90;;;;;;5056117;28;20012;-78
2020/12/15 09:13:07;;;;;;;0.93;0.68;;;10.80;89.90;;;;;;5074341;28;20112;-78
2020/12/15 09:15:44;;;;;;;1.13;1.00;;;10.80;89.80;;;;;;5072798;28;20524;-77
2020/12/15 09:18:12;;;;;;;0.85;0.85;;;10.90;89.80;;;;;;5074223;28;20039;-77
2020/12/15 09:20:38;;;;;;;1.38;1.27;;;10.90;89.80;;;;;;5055718;28;20020;-78
2020/12/15 09:23:04;;;;;;;1.15;1.15;;;10.90;89.90;;;;;;5051295;28;20410;-79
2020/12/15 09:25:30;;;;;;;1.25;1.15;;;10.90;89.90;;;;;;5052149;28;20044;-78
2020/12/15 09:27:56;;;;;;;0.93;0.93;;;10.90;89.90;;;;;;5053486;28;20021;-77
2020/12/15 09:30:22;;;;;;;1.15;1.05;;;10.90;89.80;;;;;;5054000;28;20017;-78
2020/12/15 09:32:48;;;;;;;0.70;0.70;;;10.90;89.90;;;;;;5053433;28;20442;-78
2020/12/15 09:35:15;;;;;;;1.00;1.00;;;11.00;89.80;;;;;;5054514;28;20025;-79
2020/12/15 09:37:41;;;;;;;1.00;1.00;;;11.00;89.80;;;;;;5072602;28;20039;-77
2020/12/15 09:40:09;;;;;;;1.45;1.00;;;11.00;89.90;;;;;;5073701;28;20223;-78
2020/12/15 09:42:42;;;;;;;1.33;1.00;;;11.00;89.80;;;;;;5072002;28;20406;-78
2020/12/15 09:45:08;;;;;;;1.63;1.25;;;11.10;90.20;;;;;;5066361;28;20039;-78
2020/12/15 09:47:38;;;;;;;1.38;1.20;;;11.10;89.70;;;;;;5079996;28;20089;-82
2020/12/15 09:50:04;;;;;;;1.77;1.42;;;11.10;89.70;;;;;;5075046;28;20055;-80
2020/12/15 09:52:30;;;;;;;1.10;1.05;;;11.10;89.70;;;;;;5087603;28;20032;-80
2020/12/15 09:54:55;;;;;;;0.88;0.88;;;11.10;89.80;;;;;;5054729;28;20454;-79
2020/12/15 09:57:23;;;;;;;1.23;1.13;;;11.10;89.80;;;;;;5073765;28;20410;-80
2020/12/15 09:59:49;;;;;;;1.15;1.05;;;11.10;89.80;;;;;;5057428;28;20056;-80
2020/12/15 10:02:14;;;;;;;0.80;0.80;;;11.10;89.90;;;;;;5083697;28;20090;-80
2020/12/15 10:04:40;;;;;;;1.42;1.20;;;11.10;89.80;;;;;;5076791;28;20036;-80
2020/12/15 10:07:06;;;;;;;0.95;0.95;;;11.20;89.90;;;;;;5063492;28;20021;-81
2020/12/15 10:09:32;;;;;;;0.80;0.80;;;11.20;89.90;;;;;;5055668;28;20051;-81
2020/12/15 10:12:00;;;;;;;1.23;1.13;;;11.20;89.90;;;;;;5038080;28;20024;-83
2020/12/15 10:14:26;;;;;;;1.48;1.20;;;11.20;89.90;;;;;;5036846;28;20120;-80
2020/12/15 10:16:51;;;;;;;1.30;1.20;;;11.20;89.90;;;;;;5054116;28;20219;-83
2020/12/15 10:19:18;;;;;;;1.30;1.20;;;11.20;89.80;;;;;;5036651;28;20017;-82
2020/12/15 10:21:44;;;;;;;1.27;1.13;;;11.20;89.90;;;;;;5036233;28;20116;-82
2020/12/15 10:24:10;;;;;;;1.58;1.48;;;11.20;89.90;;;;;;5060848;28;20479;-81
2020/12/15 10:26:36;;;;;;;1.08;0.95;;;11.20;89.80;;;;;;5090730;28;20028;-80
2020/12/15 10:29:01;;;;;;;1.20;1.10;;;11.20;89.80;;;;;;5078939;28;20054;-81
2020/12/15 10:31:27;;;;;;;1.35;1.25;;;11.30;89.80;;;;;;5070435;28;20028;-81
2020/12/15 10:33:53;;;;;;;1.45;1.10;;;11.30;89.70;;;;;;5074692;28;20020;-81
2020/12/15 10:36:19;;;;;;;0.80;0.80;;;11.30;89.70;;;;;;5040716;28;20036;-80
2020/12/15 10:38:44;;;;;;;1.02;0.90;;;11.30;89.70;;;;;;5075029;28;20021;-80
2020/12/15 10:41:13;;;;;;;0.80;0.80;;;11.30;90.10;;;;;;5080525;28;20040;-82
2020/12/15 10:43:39;;;;;;;1.20;1.10;;;11.40;89.70;;;;;;5085991;28;20055;-78
2020/12/15 10:46:05;;;;;;;0.93;0.93;;;11.40;89.60;;;;;;5055525;28;20025;-78
2020/12/15 10:48:31;;;;;;;1.25;1.15;;;11.40;89.60;;;;;;5074582;28;20040;-79
2020/12/15 10:50:59;;;;;;;1.20;1.00;;;11.40;89.60;;;;;;5077321;28;20024;-82
2020/12/15 10:53:26;;;;;;;1.33;1.08;;;11.40;89.90;;;;;;5047460;28;20055;-81
2020/12/15 10:55:52;;;;;;;1.52;1.13;;;11.40;89.60;;;;;;5073759;28;20032;-82
2020/12/15 10:58:18;;;;;;;1.45;1.20;;;11.40;89.50;;;;;;5062674;28;20024;-83
2020/12/15 11:00:46;;;;;;;1.05;0.95;;;11.40;89.60;;;;;;5073580;28;20029;-82
2020/12/15 11:03:13;;;;;;;1.20;1.10;;;11.40;89.50;;;;;;5048314;28;20044;-81
2020/12/15 11:05:39;;;;;;;1.40;1.30;;;11.40;89.60;;;;;;5080028;28;20016;-83
2020/12/15 11:08:06;;;;;;;1.40;1.30;;;11.40;89.60;;;;;;5068129;28;20422;-82
2020/12/15 11:10:32;;;;;;;0.90;0.90;;;11.50;89.70;;;;;;5074458;28;20103;-82
2020/12/15 11:13:02;;;;;;;1.10;1.00;;;11.40;89.70;;;;;;5063991;28;20044;-83
2020/12/15 11:15:29;;;;;;;1.40;1.30;;;11.40;89.90;;;;;;5050958;28;20016;-81
2020/12/15 11:17:57;;;;;;;1.58;1.33;;;11.40;89.80;;;;;;5075734;28;20037;-79
2020/12/15 11:21:07;;;;;;;2.05;1.38;;;11.40;89.90;;;;;;5062466;28;20020;-80
2020/12/15 11:34:24;;;;;;;2.70;2.50;;;11.40;89.10;;;;;;5088671;27;1110938;-82
2020/12/15 11:36:55;;;;;;;2.03;1.83;;;12.20;88.60;;;;;;5122889;28;20031;-80
2020/12/15 11:39:42;;;;;;;2.10;1.50;;;12.00;89.30;;;;;;5109093;28;20016;-82
2020/12/15 11:42:10;;;;;;;1.38;1.27;;;11.90;89.60;;;;;;5108757;28;20039;-84
2020/12/15 11:44:37;;;;;;;1.65;1.30;;;11.80;89.70;;;;;;5123962;28;20019;-85
2020/12/15 11:47:03;;;;;;;1.15;1.05;;;11.80;89.70;;;;;;5114203;28;20028;-82
2020/12/15 11:49:29;;;;;;;1.48;1.38;;;11.80;89.80;;;;;;5130618;28;20156;-84
2020/12/15 11:51:55;;;;;;;1.10;0.98;;;11.80;89.80;;;;;;5098207;28;20020;-82
2020/12/15 11:54:21;;;;;;;0.90;0.90;;;11.70;89.70;;;;;;5120798;28;20122;-82
2020/12/15 11:56:49;;;;;;;0.98;0.90;;;11.70;89.70;;;;;;5127694;28;20369;-84
2020/12/15 11:59:14;;;;;;;1.08;1.00;;;11.70;89.70;;;;;;5111404;28;20043;-84
2020/12/15 12:01:40;;;;;;;0.85;0.85;;;11.70;89.70;;;;;;5103494;28;20461;-81
2020/12/15 12:04:06;;;;;;;1.23;1.00;;;11.70;89.80;;;;;;5115273;28;20132;-81
2020/12/15 12:06:32;;;;;;;0.88;0.88;;;11.60;89.80;;;;;;5130689;28;20026;-85
2020/12/15 12:08:58;;;;;;;0.93;0.85;;;11.60;89.80;;;;;;5111734;28;20020;-86
2020/12/15 12:11:23;;;;;;;1.40;1.30;;;11.60;89.80;;;;;;5101688;28;20026;-84
2020/12/15 12:13:49;;;;;;;2.95;1.27;;;11.60;89.80;;;;;;5101526;28;20034;-81
2020/12/15 12:16:15;;;;;;;1.58;1.23;;;11.60;89.70;;;;;;5105718;28;20191;-83
2020/12/15 12:18:40;;;;;;;1.70;1.60;;;11.60;89.70;;;;;;5131587;27;20448;-81
2020/12/15 12:21:06;;;;;;;1.10;1.00;;;11.60;89.90;;;;;;5124085;27;20019;-80
2020/12/15 12:23:32;;;;;;;0.90;0.90;;;11.60;89.90;;;;;;5108114;28;20031;-82
2020/12/15 12:25:57;;;;;;;1.05;1.05;;;11.60;89.90;;;;;;5102377;28;20371;-80
2020/12/15 12:28:23;;;;;;;0.82;0.82;;;11.60;89.80;;;;;;5121051;28;20028;-83
2020/12/15 12:30:48;;;;;;;1.17;1.08;;;11.60;89.80;;;;;;5127610;28;20467;-87
2020/12/15 12:33:14;;;;;;;0.90;0.90;;;11.60;89.90;;;;;;5126369;28;20039;-81
2020/12/15 12:35:40;;;;;;;1.55;1.02;;;11.60;89.90;;;;;;5111971;28;20039;-79
2020/12/15 12:38:05;;;;;;;1.38;1.05;;;11.60;89.70;;;;;;5099268;28;20024;-78
2020/12/15 12:40:34;;;;;;;1.70;1.30;;;11.60;90.10;;;;;;5088492;28;20023;-78
2020/12/15 12:43:02;;;;;;;1.30;1.20;;;11.60;89.70;;;;;;5085746;28;20048;-78
2020/12/15 12:45:49;;;;;;;1.20;1.15;;;11.60;89.80;;;;;;5084705;28;20277;-81
2020/12/15 12:48:15;;;;;;;1.25;1.15;;;11.70;89.70;;;;;;5090018;28;20023;-79
2020/12/15 12:50:41;;;;;;;1.73;1.52;;;11.60;89.70;;;;;;5086807;28;20136;-81
2020/12/15 12:53:07;;;;;;;0.93;0.93;;;11.60;89.70;;;;;;5112741;28;20028;-83
2020/12/15 12:55:35;;;;;;;1.30;1.20;;;11.60;89.80;;;;;;5083562;28;20105;-84
2020/12/15 12:58:01;;;;;;;1.23;1.13;;;11.60;89.90;;;;;;5107189;28;20024;-79
2020/12/15 13:00:26;;;;;;;1.10;1.10;;;11.60;89.80;;;;;;5100955;28;20035;-82
2020/12/15 13:02:53;;;;;;;1.35;1.25;;;11.60;89.80;;;;;;5113944;28;20423;-85